Time;durP1;ratioP1;P1;durP2;ratioP2;P2;SDS_P1;SDS_P2;PMS_P1;PMS_P2;Temp;Humidity;BMP_temperature;BMP_pressure;BME280_temperature;BME280_humidity;BME280_pressure;Samples;Min_cycle;Max_cycle;Signal;HPM_P1;HPM_P2
2021/05/18 00:00:18;;;;;;;12.73;6.32;;;;;;;18.67;47.63;100703.25;5060129;28;20105;-73
2021/05/18 00:02:44;;;;;;;12.73;5.95;;;;;;;18.71;47.44;100712.53;5059907;28;20043;-73
2021/05/18 00:05:15;;;;;;;12.75;5.57;;;;;;;18.72;47.64;100719.53;5056419;28;20036;-73
2021/05/18 00:07:51;;;;;;;11.27;5.50;;;;;;;18.72;47.46;100711.47;5039706;28;20040;-73
2021/05/18 00:13:06;;;;;;;12.77;5.80;;;;;;;18.71;47.67;100716.03;5072728;28;20044;-73
2021/05/18 00:15:33;;;;;;;10.88;5.20;;;;;;;18.71;47.52;100716.03;5056248;28;20068;-73
2021/05/18 00:18:00;;;;;;;11.48;5.20;;;;;;;18.71;47.35;100715.22;5072181;28;20040;-73
2021/05/18 00:20:27;;;;;;;11.60;5.15;;;;;;;18.71;47.54;100717.91;5074789;28;20409;-73
2021/05/18 00:22:54;;;;;;;10.57;5.07;;;;;;;18.70;47.45;100711.72;5083392;28;20052;-74
2021/05/18 00:25:21;;;;;;;10.75;4.95;;;;;;;18.70;47.65;100719.78;5075081;28;20052;-73
2021/05/18 00:27:48;;;;;;;11.10;5.30;;;;;;;18.67;47.55;100714.81;5092353;28;20062;-74
2021/05/18 00:30:16;;;;;;;9.55;4.35;;;;;;;18.69;47.55;100709.22;5076295;28;20044;-73
2021/05/18 00:32:43;;;;;;;11.00;5.32;;;;;;;18.71;47.37;100712.53;5093768;28;20435;-73
2021/05/18 00:35:11;;;;;;;9.55;4.70;;;;;;;18.70;47.39;100708.19;5092552;28;20122;-73
2021/05/18 00:37:40;;;;;;;9.85;4.45;;;;;;;18.70;47.27;100713.56;5058810;28;20036;-73
2021/05/18 00:40:10;;;;;;;10.63;4.80;;;;;;;18.69;47.55;100709.22;5093815;28;20047;-73
2021/05/18 00:42:48;;;;;;;10.43;4.78;;;;;;;18.68;47.38;100700.34;5075808;28;20044;-74
2021/05/18 00:45:17;;;;;;;11.40;4.40;;;;;;;18.70;47.25;100702.81;5092500;28;20128;-73
2021/05/18 00:47:44;;;;;;;10.57;4.50;;;;;;;18.70;47.44;100709.03;5075600;28;20036;-73
2021/05/18 00:50:11;;;;;;;9.52;4.25;;;;;;;18.68;47.39;100707.56;5075475;28;20085;-73
2021/05/18 00:52:38;;;;;;;9.73;4.35;;;;;;;18.61;47.45;100696.84;5092394;28;20040;-73
2021/05/18 00:55:17;;;;;;;10.00;4.13;;;;;;;18.68;47.38;100703.03;5057209;28;20047;-73
2021/05/18 01:00:32;;;;;;;8.60;3.70;;;;;;;18.67;47.48;100701.38;5058094;28;20044;-73
2021/05/18 01:02:58;;;;;;;8.15;3.80;;;;;;;18.69;47.40;100701.97;5055564;28;20037;-73
2021/05/18 01:06:19;;;;;;;10.45;3.95;;;;;;;18.68;47.59;100715.63;5072012;28;20052;-73
2021/05/18 01:08:13;;;;;;;8.13;3.58;;;;;;;18.68;47.52;100727.22;5073088;28;20531;-73
2021/05/18 01:10:40;;;;;;;7.95;3.65;;;;;;;18.68;47.40;100727.22;5072071;28;20049;-73
2021/05/18 01:13:07;;;;;;;9.45;3.85;;;;;;;18.59;47.22;100709.63;5054824;28;20044;-73
2021/05/18 01:15:34;;;;;;;8.88;3.88;;;;;;;18.67;47.36;100724.72;5038811;28;20397;-73
2021/05/18 01:18:02;;;;;;;9.52;3.67;;;;;;;18.67;47.38;100728.25;5055175;28;20043;-73
2021/05/18 01:20:29;;;;;;;7.80;3.50;;;;;;;18.68;47.40;100727.22;5055376;28;20067;-73
2021/05/18 01:22:56;;;;;;;9.38;3.60;;;;;;;18.68;47.46;100723.69;5055474;28;20052;-73
2021/05/18 01:25:23;;;;;;;9.30;3.40;;;;;;;18.69;47.46;100730.72;5072927;28;20051;-73
2021/05/18 01:27:50;;;;;;;7.07;3.30;;;;;;;18.66;47.54;100725.75;5072246;28;20055;-73
2021/05/18 01:30:18;;;;;;;8.05;3.72;;;;;;;18.67;47.62;100725.56;5059437;28;20054;-73
2021/05/18 01:32:44;;;;;;;8.73;3.70;;;;;;;18.68;47.32;100721.00;5038742;28;20068;-73
2021/05/18 01:35:13;;;;;;;7.80;3.38;;;;;;;18.67;47.48;100733.59;5054882;28;20048;-73
2021/05/18 01:37:43;;;;;;;7.95;3.47;;;;;;;18.66;47.29;100729.25;5030261;28;20117;-73
2021/05/18 01:42:45;;;;;;;7.15;3.33;;;;;;;18.64;47.42;100723.28;5055141;28;20066;-73
2021/05/18 01:43:01;;;;;;;7.47;3.22;;;;;;;18.59;47.71;100715.00;5071483;28;20056;-74
2021/05/18 01:45:30;;;;;;;8.00;3.33;;;;;;;18.66;47.41;100728.44;5055182;28;20056;-74
2021/05/18 01:48:03;;;;;;;8.10;2.92;;;;;;;18.64;47.38;100722.44;5068126;28;20044;-74
2021/05/18 01:50:37;;;;;;;11.48;3.60;;;;;;;18.66;47.47;100734.63;5091504;28;20520;-73
2021/05/18 01:53:08;;;;;;;7.82;3.40;;;;;;;18.64;47.50;100725.13;5082538;28;20052;-73
2021/05/18 01:55:44;;;;;;;7.68;2.95;;;;;;;18.65;47.33;100729.50;5074823;28;20115;-73
2021/05/18 01:58:11;;;;;;;6.65;2.80;;;;;;;18.66;47.32;100731.94;5090866;28;20040;-74
2021/05/18 02:00:49;;;;;;;8.93;3.30;;;;;;;18.58;47.49;100722.25;5076287;28;20048;-74
2021/05/18 02:03:24;;;;;;;7.32;3.05;;;;;;;18.65;47.55;100733.00;5045302;28;20081;-73
2021/05/18 02:05:52;;;;;;;7.90;3.15;;;;;;;18.67;47.42;100735.47;5074801;28;20036;-73
2021/05/18 02:08:39;;;;;;;9.25;3.00;;;;;;;18.66;47.47;100736.50;5063830;28;20052;-74
2021/05/18 02:11:12;;;;;;;8.52;3.00;;;;;;;18.67;47.42;100732.78;5091259;28;20496;-74
2021/05/18 02:13:45;;;;;;;9.23;2.97;;;;;;;18.64;47.62;100733.19;5065433;28;20059;-73
2021/05/18 02:16:30;;;;;;;8.30;2.95;;;;;;;18.64;47.55;100736.69;5076548;28;20052;-74
2021/05/18 02:19:21;;;;;;;7.00;2.85;;;;;;;18.65;47.60;100743.75;5076009;28;20488;-74
2021/05/18 02:22:09;;;;;;;6.03;2.78;;;;;;;18.58;47.50;100734.84;5075407;28;20044;-74
2021/05/18 02:27:12;;;;;;;7.65;3.10;;;;;;;18.64;47.67;100739.38;5110411;27;20940;-73
2021/05/18 02:29:40;;;;;;;7.78;3.10;;;;;;;18.66;47.57;100747.25;5076329;28;20086;-73
2021/05/18 02:32:07;;;;;;;7.75;2.80;;;;;;;18.66;47.59;100739.19;5059520;28;20075;-73
2021/05/18 02:34:41;;;;;;;6.63;2.80;;;;;;;18.63;47.68;100736.91;5061575;28;20121;-73
2021/05/18 02:37:09;;;;;;;6.40;2.60;;;;;;;18.64;47.49;100747.44;5075853;28;20070;-73
2021/05/18 02:39:38;;;;;;;7.35;2.63;;;;;;;18.64;47.90;100738.56;5092756;28;20074;-73
2021/05/18 02:42:05;;;;;;;7.28;2.80;;;;;;;18.63;47.74;100743.13;5059266;28;20062;-73
2021/05/18 02:44:41;;;;;;;7.72;2.90;;;;;;;18.63;47.59;100740.44;5042927;28;20056;-73
2021/05/18 02:50:03;;;;;;;7.45;2.75;;;;;;;18.64;47.57;100734.00;5090011;28;20086;-74
2021/05/18 02:52:33;;;;;;;6.60;2.40;;;;;;;18.64;47.58;100741.25;5073057;28;20044;-74
2021/05/18 02:55:00;;;;;;;6.35;2.42;;;;;;;18.64;47.73;100746.63;5072422;28;20500;-74
2021/05/18 02:57:38;;;;;;;7.50;2.70;;;;;;;18.63;47.58;100745.81;5057098;28;20044;-74
2021/05/18 03:00:10;;;;;;;6.22;2.50;;;;;;;18.64;47.75;100755.50;5073093;28;20376;-73
2021/05/18 03:02:37;;;;;;;;;;;;;;;18.64;47.60;100752.81;5056217;28;20048;-73
2021/05/18 03:05:05;;;;;;;7.10;2.60;;;;;;;18.63;47.65;100740.44;5072355;28;19930;-73
2021/05/18 03:07:32;;;;;;;7.00;2.53;;;;;;;18.64;47.71;100749.31;5071580;28;20055;-73
2021/05/18 03:10:01;;;;;;;5.93;2.60;;;;;;;18.60;47.71;100748.91;5071794;28;20776;-73
2021/05/18 03:12:29;;;;;;;7.55;2.60;;;;;;;18.63;47.75;100753.88;5071682;28;20459;-73
2021/05/18 03:14:56;;;;;;;6.28;2.40;;;;;;;18.61;47.69;100743.31;5055153;28;20071;-73
2021/05/18 03:17:23;;;;;;;5.40;2.40;;;;;;;18.61;47.58;100742.50;5055296;28;20041;-74
2021/05/18 03:19:50;;;;;;;6.38;2.50;;;;;;;18.61;47.72;100748.69;5089495;28;20040;-73
2021/05/18 03:22:17;;;;;;;7.25;2.80;;;;;;;18.61;47.75;100743.31;5055033;28;20496;-73
2021/05/18 03:24:44;;;;;;;5.78;2.50;;;;;;;18.61;47.74;100746.00;5071398;28;20485;-72
2021/05/18 03:27:11;;;;;;;6.05;2.33;;;;;;;18.61;47.77;100743.31;5069803;28;20046;-74
2021/05/18 03:29:39;;;;;;;7.07;2.50;;;;;;;18.63;47.83;100750.34;5054862;28;20120;-75
2021/05/18 03:34:53;;;;;;;6.20;2.40;;;;;;;18.63;47.80;100739.59;5088763;28;20040;-75
2021/05/18 03:37:32;;;;;;;5.53;2.20;;;;;;;18.62;47.69;100746.84;5064530;28;20045;-74
2021/05/18 03:40:01;;;;;;;5.00;2.08;;;;;;;18.63;47.41;100742.28;5026019;28;20175;-75
2021/05/18 03:42:36;;;;;;;7.07;2.30;;;;;;;18.60;47.88;100743.53;5025263;28;20048;-74
2021/05/18 03:45:11;;;;;;;5.63;2.13;;;;;;;18.62;47.95;100746.84;5046521;28;20044;-74
2021/05/18 03:58:59;;;;;;;4.93;2.00;;;;;;;18.61;47.75;100755.94;5056988;28;20091;-74
2021/05/18 04:04:18;;;;;;;5.55;2.00;;;;;;;18.60;47.82;100757.78;5027102;28;20131;-74
2021/05/18 04:12:54;;;;;;;5.43;1.75;;;;;;;18.61;47.76;100762.13;5056598;28;20055;-74
2021/05/18 04:23:25;;;;;;;6.32;2.10;;;;;;;18.59;47.78;100763.34;5067908;28;20052;-74
2021/05/18 04:26:23;;;;;;;4.25;2.00;;;;;;;18.63;47.73;100769.13;5055932;28;20059;-74
2021/05/18 04:53:33;;;;;;;4.90;1.90;;;;;;;18.62;47.79;100781.75;5092619;28;20052;-73
2021/05/18 05:01:50;;;;;;;4.43;1.88;;;;;;;18.64;47.77;100792.31;5095673;28;20051;-75
2021/05/18 05:06:13;;;;;;;4.55;1.80;;;;;;;18.63;47.87;100793.31;5102828;28;20050;-75
2021/05/18 05:07:06;;;;;;;4.20;1.73;;;;;;;18.64;47.82;100790.44;5109152;28;20039;-75
2021/05/18 05:09:36;;;;;;;3.90;1.60;;;;;;;18.63;47.85;100790.63;5092662;28;20043;-75
2021/05/18 05:12:52;;;;;;;3.83;1.80;;;;;;;18.62;48.05;100792.50;5110265;28;20092;-75
2021/05/18 05:14:50;;;;;;;4.30;1.70;;;;;;;18.63;47.78;100798.69;5092011;28;20048;-75
2021/05/18 05:17:17;;;;;;;5.68;1.83;;;;;;;18.58;48.04;100786.72;5108928;28;20074;-75
2021/05/18 05:19:44;;;;;;;4.32;1.90;;;;;;;18.62;47.80;100797.88;5092058;28;20036;-75
2021/05/18 05:22:13;;;;;;;4.38;1.80;;;;;;;18.60;48.21;100800.75;5092496;28;20044;-75
2021/05/18 05:24:41;;;;;;;4.15;1.67;;;;;;;18.63;48.11;100804.06;5092175;28;20135;-74
2021/05/18 05:27:08;;;;;;;4.15;1.63;;;;;;;18.63;48.04;100806.75;5108338;28;20040;-75
2021/05/18 05:29:41;;;;;;;3.90;1.77;;;;;;;18.64;48.29;100803.06;5093179;28;20488;-74
2021/05/18 05:32:08;;;;;;;4.03;1.77;;;;;;;18.57;48.17;100803.03;5075391;28;20044;-74
2021/05/18 05:34:35;;;;;;;3.88;1.52;;;;;;;18.64;48.13;100811.09;5108988;28;20089;-75
2021/05/18 05:37:02;;;;;;;5.45;1.88;;;;;;;18.64;48.24;100805.72;5108392;28;20113;-74
2021/05/18 05:39:29;;;;;;;5.78;1.70;;;;;;;18.65;48.19;100810.09;5108619;28;20039;-74
2021/05/18 05:41:55;;;;;;;5.43;1.67;;;;;;;18.61;48.17;100804.31;5107956;28;20122;-74
2021/05/18 05:44:24;;;;;;;4.95;1.70;;;;;;;18.54;48.04;100798.91;5091998;28;20055;-74
2021/05/18 05:46:51;;;;;;;4.40;1.75;;;;;;;18.63;48.02;100804.91;5108417;28;20039;-74
2021/05/18 05:49:18;;;;;;;5.40;1.70;;;;;;;18.55;48.27;100797.03;5108435;28;20036;-74
2021/05/18 05:51:44;;;;;;;4.13;1.80;;;;;;;18.64;48.28;100811.94;5091706;28;20040;-75
2021/05/18 05:54:12;;;;;;;5.22;1.73;;;;;;;18.65;48.30;100810.09;5076556;28;20051;-74
2021/05/18 05:56:39;;;;;;;3.67;1.60;;;;;;;18.64;48.28;100811.94;5074336;28;20080;-74
2021/05/18 05:59:08;;;;;;;3.78;1.60;;;;;;;18.64;48.34;100820.00;5057790;28;20051;-74
2021/05/18 06:01:36;;;;;;;4.97;1.83;;;;;;;18.64;48.29;100814.63;5081958;28;20040;-74
2021/05/18 06:04:03;;;;;;;5.22;1.83;;;;;;;18.64;48.17;100817.31;5078241;28;20040;-74
2021/05/18 06:06:30;;;;;;;4.25;1.70;;;;;;;18.64;48.32;100811.94;5078186;28;20551;-74
2021/05/18 06:08:57;;;;;;;2.53;1.25;;;;;;;18.61;48.29;100806.97;5061358;28;20044;-74
2021/05/18 06:14:41;;;;;;;4.40;1.80;;;;;;;18.65;48.26;100820.84;5094553;28;20055;-74
2021/05/18 06:17:34;;;;;;;4.35;1.67;;;;;;;18.68;48.15;100832.00;5077629;28;20062;-74
2021/05/18 06:37:17;;;;;;;6.50;1.88;;;;;;;18.71;48.16;100838.81;5094118;28;20123;-75
2021/05/18 06:47:33;;;;;;;4.85;1.73;;;;;;;18.80;47.99;100853.69;5032550;28;20041;-74
2021/05/18 06:50:34;;;;;;;5.80;2.00;;;;;;;18.75;47.94;100830.13;5049005;28;20037;-73
2021/05/18 06:52:50;;;;;;;7.97;2.13;;;;;;;18.80;48.43;100851.00;5020190;28;20042;-73
2021/05/18 06:55:20;;;;;;;5.10;1.90;;;;;;;18.80;48.05;100859.88;5011696;28;20099;-73
2021/05/18 06:57:50;;;;;;;5.30;1.70;;;;;;;18.80;48.41;100859.06;5000657;28;20104;-73
2021/05/18 07:00:19;;;;;;;10.05;1.65;;;;;;;18.80;48.43;100851.00;4974178;28;20501;-73
2021/05/18 07:02:50;;;;;;;6.85;1.90;;;;;;;18.81;48.45;100858.09;5027255;28;20096;-73
2021/05/18 07:10:50;;;;;;;5.75;1.98;;;;;;;18.86;48.37;100860.13;5018098;28;20387;-74
2021/05/18 07:13:18;;;;;;;5.57;1.98;;;;;;;18.88;48.10;100858.06;5032401;28;20095;-73
2021/05/18 07:15:45;;;;;;;7.82;2.28;;;;;;;18.89;48.41;100871.31;5032171;28;20091;-72
2021/05/18 07:18:12;;;;;;;7.97;2.03;;;;;;;18.87;48.09;100867.19;5059401;28;20041;-73
2021/05/18 07:20:39;;;;;;;5.30;2.08;;;;;;;18.90;48.31;100870.28;5062375;28;20040;-73
2021/05/18 07:23:09;;;;;;;6.22;2.20;;;;;;;18.89;47.90;100868.63;5061172;28;20042;-73
2021/05/18 07:25:37;;;;;;;6.18;2.30;;;;;;;18.90;48.32;100877.50;5056364;28;20033;-73
2021/05/18 07:28:07;;;;;;;8.88;3.00;;;;;;;18.91;48.20;100879.16;5030417;28;20052;-73
2021/05/18 07:30:37;;;;;;;7.30;2.75;;;;;;;18.88;48.07;100879.56;5036638;28;20042;-73
2021/05/18 07:33:06;;;;;;;8.98;3.35;;;;;;;18.74;48.12;100868.78;5040024;28;20107;-72
2021/05/18 07:35:33;;;;;;;10.50;3.50;;;;;;;18.80;47.90;100876.00;5031033;28;20041;-73
2021/05/18 07:38:00;;;;;;;10.05;3.80;;;;;;;18.71;48.18;100865.69;5048750;28;20045;-72
2021/05/18 07:40:27;;;;;;;18.40;7.00;;;;;;;18.48;48.63;100887.53;5054373;28;20119;-72
2021/05/18 07:42:56;;;;;;;14.20;7.15;;;;;;;18.49;48.51;100881.13;5019586;28;20582;-73
2021/05/18 07:45:27;;;;;;;15.15;7.53;;;;;;;18.28;48.66;100882.94;5013856;28;20059;-73
2021/05/18 07:50:57;;;;;;;13.73;6.50;;;;;;;18.55;48.15;100889.19;5028910;28;20045;-74
2021/05/18 07:59:16;;;;;;;13.93;6.13;;;;;;;18.82;47.84;100891.97;5043211;28;20440;-75
2021/05/18 08:07:18;;;;;;;13.77;5.57;;;;;;;18.95;47.61;100891.16;5058270;28;20046;-74
2021/05/18 08:09:50;;;;;;;11.82;5.25;;;;;;;18.93;47.74;100885.16;5038097;28;20478;-74
2021/05/18 08:12:17;;;;;;;15.23;5.72;;;;;;;18.98;47.81;100883.50;5044320;28;20089;-74
2021/05/18 08:14:53;;;;;;;13.57;5.57;;;;;;;18.98;47.65;100883.50;5009220;28;20047;-74
2021/05/18 08:17:31;;;;;;;10.80;5.00;;;;;;;18.94;47.79;100881.47;5022531;28;20546;-74
2021/05/18 09:01:57;;;;;;;9.75;4.40;;;;;;;19.09;47.70;100865.94;5014367;28;20033;-74
2021/05/18 09:48:49;;;;;;;8.27;3.90;;;;;;;19.22;47.57;100875.03;5086633;28;20123;-74
2021/05/18 10:22:05;;;;;;;10.30;3.50;;;;;;;19.58;46.79;100866.50;5140967;27;20274;-74
2021/05/18 10:28:09;;;;;;;9.77;3.70;;;;;;;19.56;46.70;100872.09;5108307;28;20407;-75
2021/05/18 10:35:54;;;;;;;8.27;3.53;;;;;;;19.65;46.68;100877.25;5116855;27;20347;-74
2021/05/18 10:38:31;;;;;;;7.85;3.70;;;;;;;19.69;46.09;100882.00;5076721;28;20126;-71
2021/05/18 10:41:13;;;;;;;7.80;3.35;;;;;;;19.70;45.71;100880.97;5087348;28;20052;-73
2021/05/18 10:43:41;;;;;;;;;;;;;;;19.82;45.82;100883.84;5089292;28;20502;-72
2021/05/18 10:46:11;;;;;;;9.82;3.47;;;;;;;19.84;46.01;100879.06;5073410;28;19924;-72
2021/05/18 10:51:33;;;;;;;8.55;3.55;;;;;;;19.92;45.67;100886.13;5030251;28;20892;-73
2021/05/18 10:54:20;;;;;;;6.75;2.90;;;;;;;19.89;45.95;100884.66;5011293;28;20132;-72
2021/05/18 11:09:57;;;;;;;7.93;3.38;;;;;;;19.90;46.04;100885.47;5096647;27;20404;-74
2021/05/18 11:12:25;;;;;;;7.55;3.17;;;;;;;19.77;46.42;100889.03;5017824;28;20068;-74
2021/05/18 11:15:14;;;;;;;7.75;3.30;;;;;;;19.72;46.58;100892.34;5041081;28;20055;-74
2021/05/18 11:17:46;;;;;;;9.15;3.30;;;;;;;19.69;46.47;100890.06;5048669;28;20542;-73
2021/05/18 11:26:00;;;;;;;9.48;3.45;;;;;;;19.75;46.42;100877.66;5100497;27;20394;-72
2021/05/18 11:31:08;;;;;;;7.53;3.40;;;;;;;19.72;46.42;100883.44;5134619;27;20353;-72
2021/05/18 11:33:42;;;;;;;8.23;3.20;;;;;;;19.71;46.32;100885.28;5138404;27;20040;-74
2021/05/18 11:36:12;;;;;;;6.65;3.33;;;;;;;19.83;46.24;100882.81;5091972;28;20052;-74
2021/05/18 11:38:47;;;;;;;7.63;3.22;;;;;;;20.07;45.27;100875.06;5109576;28;20097;-75
2021/05/18 11:41:24;;;;;;;6.90;3.20;;;;;;;20.13;45.18;100874.22;5087365;28;20054;-74
2021/05/18 11:43:54;;;;;;;7.63;3.40;;;;;;;20.03;45.26;100881.91;5126035;27;20039;-74
2021/05/18 11:46:23;;;;;;;9.85;3.08;;;;;;;19.97;45.39;100882.78;5149798;27;20039;-74
2021/05/18 11:49:04;;;;;;;8.45;3.13;;;;;;;19.89;45.52;100879.28;5132706;27;20099;-74
2021/05/18 11:51:52;;;;;;;7.55;3.40;;;;;;;19.85;46.00;100877.22;5149910;27;20046;-74
2021/05/18 11:54:29;;;;;;;7.47;3.25;;;;;;;20.03;45.33;100876.53;5136402;27;20039;-73
2021/05/18 11:56:58;;;;;;;7.47;3.00;;;;;;;19.93;45.62;100877.78;5111387;27;20055;-72
2021/05/18 11:59:27;;;;;;;6.30;2.80;;;;;;;20.02;45.49;100867.63;5105793;28;20043;-74
2021/05/18 12:04:32;;;;;;;7.15;3.30;;;;;;;20.03;44.59;100869.28;5098166;27;20393;-76
2021/05/18 12:07:04;;;;;;;6.70;3.00;;;;;;;19.94;43.21;100881.34;5081182;28;20049;-75
2021/05/18 12:09:33;;;;;;;9.38;3.50;;;;;;;19.80;43.95;100868.97;5096130;28;20046;-75
2021/05/18 12:12:04;;;;;;;7.72;2.90;;;;;;;19.87;43.92;100870.59;5054905;28;20097;-75
2021/05/18 12:14:40;;;;;;;;;;;;;;;20.00;43.16;100874.28;5086655;28;20059;-75
2021/05/18 12:17:07;;;;;;;10.25;4.50;;;;;;;19.83;43.39;100872.06;5042957;28;19928;-75
2021/05/18 12:19:38;;;;;;;12.85;7.95;;;;;;;19.72;41.83;100884.28;5060371;28;20040;-75
2021/05/18 12:22:06;;;;;;;14.87;7.50;;;;;;;19.59;41.81;100889.66;5088155;28;20127;-75
2021/05/18 12:24:43;;;;;;;12.88;7.25;;;;;;;19.53;42.17;100902.09;5071537;28;20048;-75
2021/05/18 12:27:11;;;;;;;10.77;5.93;;;;;;;19.48;42.86;100923.44;5104941;28;20048;-75
2021/05/18 12:29:43;;;;;;;12.98;6.68;;;;;;;19.48;42.42;100926.13;5067953;28;20068;-75
2021/05/18 12:32:34;;;;;;;11.68;6.25;;;;;;;19.41;41.98;100933.38;5093004;28;20048;-76
2021/05/18 12:37:47;;;;;;;11.13;5.75;;;;;;;19.41;43.07;100932.53;5101365;27;20366;-74
2021/05/18 12:40:32;;;;;;;12.63;5.10;;;;;;;19.40;43.25;100933.56;5101781;28;20105;-74
2021/05/18 12:43:15;;;;;;;11.82;5.05;;;;;;;19.40;43.51;100917.44;5096899;28;20510;-74
2021/05/18 12:45:43;;;;;;;12.98;5.18;;;;;;;19.45;43.71;100925.72;5071374;28;20037;-74
2021/05/18 12:48:13;;;;;;;11.30;4.35;;;;;;;19.53;43.53;100925.50;5090938;28;20075;-74
2021/05/18 12:50:44;;;;;;;10.68;4.03;;;;;;;19.59;43.68;100931.88;5089445;28;20039;-74
2021/05/18 12:53:32;;;;;;;10.77;4.20;;;;;;;19.79;43.21;100930.00;5104122;28;20040;-73
2021/05/18 12:56:00;;;;;;;12.18;4.40;;;;;;;19.83;43.27;100931.28;5103051;28;20070;-74
2021/05/18 12:58:29;;;;;;;9.68;3.80;;;;;;;19.83;43.17;100925.88;5088592;28;20068;-75
2021/05/18 13:01:14;;;;;;;11.35;3.88;;;;;;;19.77;43.35;100928.59;5098368;28;20039;-74
2021/05/18 13:03:43;;;;;;;8.60;3.30;;;;;;;19.60;43.85;100929.00;5081715;28;20068;-74
2021/05/18 13:06:11;;;;;;;9.25;4.00;;;;;;;19.51;44.04;100919.50;5107556;28;20035;-74
2021/05/18 13:08:41;;;;;;;9.70;3.45;;;;;;;19.52;44.10;100923.84;5101227;28;20066;-73
2021/05/18 13:13:56;;;;;;;9.30;3.10;;;;;;;19.44;44.11;100924.88;5086584;28;20047;-74
2021/05/18 13:16:30;;;;;;;7.18;2.80;;;;;;;19.44;44.17;100921.34;5124556;28;20054;-74
2021/05/18 13:19:02;;;;;;;8.40;3.20;;;;;;;19.41;44.64;100921.75;5114118;28;20048;-74
2021/05/18 13:21:35;;;;;;;7.03;2.67;;;;;;;19.30;44.33;100904.38;5122621;28;20040;-74
2021/05/18 13:26:35;;;;;;;6.43;2.58;;;;;;;19.35;44.55;100916.19;5093576;28;20062;-74
2021/05/18 13:29:19;;;;;;;5.53;2.53;;;;;;;19.35;44.40;100928.81;5092987;28;20384;-74
2021/05/18 13:31:50;;;;;;;8.52;2.75;;;;;;;19.33;44.17;100923.63;5122550;28;20501;-73
2021/05/18 13:34:19;;;;;;;6.28;2.40;;;;;;;19.30;44.17;100915.16;5109180;28;20093;-77
2021/05/18 13:36:48;;;;;;;6.93;2.50;;;;;;;19.32;44.11;100913.94;5101827;28;20049;-76
2021/05/18 13:39:18;;;;;;;5.53;2.30;;;;;;;19.30;43.84;100910.63;5095809;28;20461;-77
2021/05/18 13:41:47;;;;;;;6.75;2.47;;;;;;;19.32;43.58;100913.09;5107616;28;20063;-74
2021/05/18 13:44:14;;;;;;;6.38;2.20;;;;;;;19.33;43.77;100912.06;5107400;28;20048;-74
2021/05/18 13:46:44;;;;;;;7.15;2.05;;;;;;;19.36;43.50;100917.84;5107171;28;20039;-75
2021/05/18 13:49:13;;;;;;;4.55;2.10;;;;;;;19.41;42.95;100921.75;5093720;28;20148;-75
2021/05/18 13:51:42;;;;;;;4.70;2.10;;;;;;;19.42;43.37;100918.88;5075367;28;20076;-75
2021/05/18 13:54:13;;;;;;;7.50;2.28;;;;;;;19.35;42.71;100901.91;5059232;28;20055;-75
2021/05/18 13:56:41;;;;;;;6.22;1.95;;;;;;;19.52;43.40;100921.97;5075675;28;20552;-76
2021/05/18 13:59:09;;;;;;;6.45;2.20;;;;;;;19.49;42.81;100925.06;5049007;28;20093;-75
2021/05/18 14:01:36;;;;;;;4.40;2.00;;;;;;;19.49;42.98;100927.75;5075444;28;20560;-74
2021/05/18 14:04:03;;;;;;;5.53;2.20;;;;;;;19.61;41.47;100933.34;5058783;28;20082;-73
2021/05/18 14:06:30;;;;;;;4.60;1.83;;;;;;;19.58;41.63;100931.06;5109568;28;20269;-74
2021/05/18 14:08:57;;;;;;;4.57;1.90;;;;;;;19.47;42.31;100915.56;5092824;28;20054;-74
2021/05/18 14:11:25;;;;;;;5.00;1.92;;;;;;;19.42;43.01;100924.25;5092667;28;20135;-75
2021/05/18 14:13:54;;;;;;;5.03;1.75;;;;;;;19.40;42.75;100926.31;5061512;28;20063;-75
2021/05/18 14:16:22;;;;;;;4.20;1.70;;;;;;;19.40;42.83;100926.31;5092078;28;20039;-76
2021/05/18 14:18:53;;;;;;;5.07;1.80;;;;;;;19.27;42.38;100921.78;5075985;28;20780;-76
2021/05/18 14:21:21;;;;;;;5.68;2.15;;;;;;;19.31;42.33;100919.50;5075318;28;20044;-75
2021/05/18 14:26:24;;;;;;;4.75;1.98;;;;;;;19.42;42.34;100926.13;5088188;28;20047;-76
2021/05/18 14:28:51;;;;;;;8.05;2.13;;;;;;;19.35;42.31;100923.44;5048563;28;20048;-76
2021/05/18 14:31:18;;;;;;;5.38;1.90;;;;;;;19.32;42.44;100919.31;5063849;28;20063;-76
2021/05/18 14:33:46;;;;;;;8.63;1.92;;;;;;;19.38;42.39;100925.72;5091098;28;20040;-76
2021/05/18 14:36:13;;;;;;;6.68;2.20;;;;;;;19.46;42.24;100919.28;5075472;28;20052;-74
2021/05/18 14:39:04;;;;;;;6.07;2.13;;;;;;;19.62;41.78;100918.84;5079189;28;20147;-74
2021/05/18 14:44:23;;;;;;;7.82;2.60;;;;;;;19.77;41.35;100915.13;5060093;28;20044;-74
2021/05/18 14:55:16;;;;;;;21.85;14.00;;;;;;;19.58;41.37;100919.50;5128711;28;20417;-72
2021/05/18 14:57:43;;;;;;;16.20;10.77;;;;;;;19.63;41.43;100928.59;5102532;28;20396;-71
2021/05/18 15:00:11;;;;;;;20.30;11.38;;;;;;;19.66;41.84;100928.16;5089329;27;20043;-71
2021/05/18 15:02:38;;;;;;;20.45;13.32;;;;;;;19.53;42.26;100926.31;5112208;28;20078;-72
2021/05/18 15:05:07;;;;;;;17.98;11.23;;;;;;;19.43;42.16;100931.31;5123632;27;20071;-73
2021/05/18 15:07:34;;;;;;;18.30;10.85;;;;;;;19.37;42.65;100927.59;5105289;28;20442;-73
2021/05/18 15:10:00;;;;;;;21.50;9.32;;;;;;;19.33;42.73;100926.31;5128479;28;20050;-72
2021/05/18 15:12:28;;;;;;;16.42;8.60;;;;;;;19.29;43.08;100925.09;5113181;27;20519;-73
2021/05/18 15:14:55;;;;;;;14.07;7.47;;;;;;;19.29;43.02;100929.66;5090649;28;20093;-73
2021/05/18 15:17:22;;;;;;;15.43;8.00;;;;;;;19.23;43.30;100928.63;5098935;28;20040;-73
2021/05/18 15:19:52;;;;;;;15.10;7.53;;;;;;;19.23;43.06;100936.69;5103043;28;20031;-72
2021/05/18 15:22:20;;;;;;;13.48;6.45;;;;;;;19.14;43.20;100924.47;5110675;28;20062;-72
2021/05/18 15:24:47;;;;;;;15.13;6.70;;;;;;;19.17;43.93;100950.94;5094452;28;20055;-72
2021/05/18 15:27:14;;;;;;;13.70;6.05;;;;;;;19.13;43.99;100969.34;5074080;28;20492;-72
2021/05/18 15:29:41;;;;;;;10.90;5.40;;;;;;;19.12;43.50;101002.66;5089461;28;20468;-72
2021/05/18 15:32:08;;;;;;;11.82;4.95;;;;;;;19.12;43.89;101016.09;5130000;27;20039;-72
2021/05/18 15:34:35;;;;;;;12.05;4.93;;;;;;;19.10;44.31;100998.50;5094341;28;20420;-73
2021/05/18 15:37:04;;;;;;;11.05;4.53;;;;;;;19.10;44.65;100975.16;5111980;28;20043;-73
2021/05/18 15:39:31;;;;;;;12.02;4.68;;;;;;;19.05;44.97;100960.66;5128937;27;20074;-73
2021/05/18 15:41:58;;;;;;;9.77;3.53;;;;;;;19.18;45.26;100974.13;5111412;28;20042;-72
2021/05/18 15:44:26;;;;;;;10.57;3.58;;;;;;;19.22;45.26;100953.84;5128549;28;20126;-72
2021/05/18 15:46:53;;;;;;;11.45;3.80;;;;;;;19.27;45.38;100954.06;5111229;28;20039;-73
2021/05/18 15:49:20;;;;;;;9.18;3.53;;;;;;;19.20;45.88;100966.66;5112495;28;20043;-73
2021/05/18 15:51:47;;;;;;;12.43;5.38;;;;;;;19.10;46.45;100959.00;5090577;28;20076;-72
2021/05/18 15:54:14;;;;;;;26.25;13.68;;;;;;;19.05;46.36;100960.66;5123549;28;20043;-72
2021/05/18 15:56:41;;;;;;;38.55;20.88;;;;;;;19.00;46.75;100958.56;5128680;28;20051;-72
2021/05/18 15:59:12;;;;;;;48.13;27.15;;;;;;;18.98;46.82;100968.72;5091280;28;20055;-73
2021/05/18 16:01:39;;;;;;;48.28;28.60;;;;;;;18.93;47.13;100976.56;5094049;28;20040;-73
2021/05/18 16:04:07;;;;;;;46.90;26.92;;;;;;;18.98;46.80;100979.47;5094491;28;20036;-73
2021/05/18 16:06:39;;;;;;;50.08;28.50;;;;;;;18.96;46.72;100989.59;5077448;28;20036;-73
2021/05/18 16:09:08;;;;;;;50.60;27.90;;;;;;;18.98;46.55;100982.16;5075325;28;20130;-75
2021/05/18 16:11:36;;;;;;;44.90;26.58;;;;;;;19.01;46.67;100972.84;5080704;28;20046;-75
2021/05/18 16:14:04;;;;;;;45.67;26.50;;;;;;;19.01;46.42;100980.91;5097812;28;20488;-74
2021/05/18 16:16:32;;;;;;;44.15;25.27;;;;;;;19.03;46.54;100968.94;5097571;28;20082;-73
2021/05/18 16:19:00;;;;;;;42.85;23.52;;;;;;;18.99;46.43;100963.13;5114453;28;20043;-73
2021/05/18 16:21:28;;;;;;;39.05;21.50;;;;;;;19.08;46.71;100971.00;5113772;28;20051;-73
2021/05/18 16:23:57;;;;;;;40.05;22.58;;;;;;;19.16;46.38;100971.63;5097307;28;20058;-73
2021/05/18 16:26:27;;;;;;;37.95;22.33;;;;;;;19.26;46.21;100971.22;5097617;28;20071;-74
2021/05/18 16:28:55;;;;;;;38.72;21.55;;;;;;;19.22;46.67;100974.53;5080507;28;20036;-74
2021/05/18 16:31:23;;;;;;;37.00;21.13;;;;;;;19.13;46.68;100977.41;5098214;28;20036;-73